sensor_id;sensor_type;location;lat;lon;timestamp;temperature;humidity
19888;DHT22;10106;51.332;12.336;2023-06-14T00:01:57;13.50;1.00
19888;DHT22;10106;51.332;12.336;2023-06-14T00:04:24;13.40;1.00
19888;DHT22;10106;51.332;12.336;2023-06-14T00:06:50;13.40;1.00
19888;DHT22;10106;51.332;12.336;2023-06-14T00:09:16;13.30;1.00
19888;DHT22;10106;51.332;12.336;2023-06-14T00:11:43;13.30;1.00
19888;DHT22;10106;51.332;12.336;2023-06-14T00:14:08;13.30;1.00
19888;DHT22;10106;51.332;12.336;2023-06-14T00:16:34;13.20;1.00
19888;DHT22;10106;51.332;12.336;2023-06-14T00:19:03;13.20;1.00
19888;DHT22;10106;51.332;12.336;2023-06-14T00:21:32;13.10;25.80
19888;DHT22;10106;51.332;12.336;2023-06-14T00:23:58;13.10;73.40
19888;DHT22;10106;51.332;12.336;2023-06-14T00:26:24;13.00;99.90
19888;DHT22;10106;51.332;12.336;2023-06-14T00:28:51;13.00;99.90
19888;DHT22;10106;51.332;12.336;2023-06-14T00:31:17;13.00;99.90
19888;DHT22;10106;51.332;12.336;2023-06-14T00:33:43;12.90;99.90
19888;DHT22;10106;51.332;12.336;2023-06-14T00:36:08;12.90;99.90
19888;DHT22;10106;51.332;12.336;2023-06-14T00:38:34;12.90;99.90
19888;DHT22;10106;51.332;12.336;2023-06-14T00:41:00;12.90;1.00
19888;DHT22;10106;51.332;12.336;2023-06-14T00:43:26;12.80;1.00
19888;DHT22;10106;51.332;12.336;2023-06-14T00:45:51;12.80;1.00
19888;DHT22;10106;51.332;12.336;2023-06-14T00:48:17;12.70;1.00
19888;DHT22;10106;51.332;12.336;2023-06-14T00:50:43;12.70;1.00
19888;DHT22;10106;51.332;12.336;2023-06-14T00:53:11;12.70;1.00
19888;DHT22;10106;51.332;12.336;2023-06-14T00:55:37;12.60;17.70
19888;DHT22;10106;51.332;12.336;2023-06-14T00:58:03;12.60;99.90
19888;DHT22;10106;51.332;12.336;2023-06-14T01:00:28;12.60;99.90
19888;DHT22;10106;51.332;12.336;2023-06-14T01:02:54;12.60;99.90
19888;DHT22;10106;51.332;12.336;2023-06-14T01:05:23;12.60;99.90
19888;DHT22;10106;51.332;12.336;2023-06-14T01:13:05;12.50;1.00
19888;DHT22;10106;51.332;12.336;2023-06-14T01:15:32;12.50;1.00
19888;DHT22;10106;51.332;12.336;2023-06-14T01:17:58;12.50;1.00
19888;DHT22;10106;51.332;12.336;2023-06-14T01:20:33;12.50;1.00
19888;DHT22;10106;51.332;12.336;2023-06-14T01:23:02;12.50;1.00
19888;DHT22;10106;51.332;12.336;2023-06-14T01:25:28;12.50;1.00
19888;DHT22;10106;51.332;12.336;2023-06-14T01:27:55;12.50;1.00
19888;DHT22;10106;51.332;12.336;2023-06-14T01:30:23;12.40;99.90
19888;DHT22;10106;51.332;12.336;2023-06-14T01:32:50;12.40;99.90
19888;DHT22;10106;51.332;12.336;2023-06-14T01:35:16;12.40;1.00
19888;DHT22;10106;51.332;12.336;2023-06-14T01:37:42;12.40;1.00
19888;DHT22;10106;51.332;12.336;2023-06-14T01:40:09;12.30;69.40
19888;DHT22;10106;51.332;12.336;2023-06-14T01:42:38;12.30;43.30
19888;DHT22;10106;51.332;12.336;2023-06-14T01:45:04;12.30;1.00
19888;DHT22;10106;51.332;12.336;2023-06-14T01:47:31;12.30;99.90
19888;DHT22;10106;51.332;12.336;2023-06-14T01:49:57;12.20;10.90
19888;DHT22;10106;51.332;12.336;2023-06-14T01:52:23;12.20;99.90
19888;DHT22;10106;51.332;12.336;2023-06-14T01:54:49;12.20;99.90
19888;DHT22;10106;51.332;12.336;2023-06-14T01:57:16;12.10;99.90
19888;DHT22;10106;51.332;12.336;2023-06-14T01:59:42;12.10;99.90
19888;DHT22;10106;51.332;12.336;2023-06-14T02:02:07;12.10;99.90
19888;DHT22;10106;51.332;12.336;2023-06-14T02:04:33;12.00;99.90
19888;DHT22;10106;51.332;12.336;2023-06-14T02:06:58;12.00;99.90
19888;DHT22;10106;51.332;12.336;2023-06-14T02:09:24;11.90;99.90
19888;DHT22;10106;51.332;12.336;2023-06-14T02:11:50;11.90;99.90
19888;DHT22;10106;51.332;12.336;2023-06-14T02:14:16;11.90;99.90
19888;DHT22;10106;51.332;12.336;2023-06-14T02:16:42;11.80;99.90
19888;DHT22;10106;51.332;12.336;2023-06-14T02:19:17;11.80;99.90
19888;DHT22;10106;51.332;12.336;2023-06-14T02:21:43;11.80;99.90
19888;DHT22;10106;51.332;12.336;2023-06-14T02:24:09;11.80;99.90
19888;DHT22;10106;51.332;12.336;2023-06-14T02:26:35;11.80;99.90
19888;DHT22;10106;51.332;12.336;2023-06-14T02:29:06;11.80;99.90
19888;DHT22;10106;51.332;12.336;2023-06-14T02:31:35;11.70;99.90
19888;DHT22;10106;51.332;12.336;2023-06-14T02:34:00;11.70;99.90
19888;DHT22;10106;51.332;12.336;2023-06-14T02:36:26;11.70;99.90
19888;DHT22;10106;51.332;12.336;2023-06-14T02:38:52;11.70;99.90
19888;DHT22;10106;51.332;12.336;2023-06-14T02:41:19;11.70;99.90
19888;DHT22;10106;51.332;12.336;2023-06-14T02:43:45;11.60;99.90
19888;DHT22;10106;51.332;12.336;2023-06-14T02:46:10;11.60;99.90
19888;DHT22;10106;51.332;12.336;2023-06-14T02:48:36;11.60;99.90
19888;DHT22;10106;51.332;12.336;2023-06-14T02:51:02;11.70;99.90
19888;DHT22;10106;51.332;12.336;2023-06-14T02:53:27;11.60;99.90
19888;DHT22;10106;51.332;12.336;2023-06-14T02:55:53;11.60;99.90
19888;DHT22;10106;51.332;12.336;2023-06-14T02:58:20;11.60;99.90
19888;DHT22;10106;51.332;12.336;2023-06-14T03:00:46;11.60;99.90
19888;DHT22;10106;51.332;12.336;2023-06-14T03:03:12;11.60;99.90
19888;DHT22;10106;51.332;12.336;2023-06-14T03:05:46;11.60;99.90
19888;DHT22;10106;51.332;12.336;2023-06-14T03:08:15;11.60;99.90
19888;DHT22;10106;51.332;12.336;2023-06-14T03:10:52;11.60;99.90
19888;DHT22;10106;51.332;12.336;2023-06-14T03:13:18;11.60;99.90
19888;DHT22;10106;51.332;12.336;2023-06-14T03:15:47;11.60;99.90
19888;DHT22;10106;51.332;12.336;2023-06-14T03:18:18;11.60;99.90
19888;DHT22;10106;51.332;12.336;2023-06-14T03:20:44;11.50;99.90
19888;DHT22;10106;51.332;12.336;2023-06-14T03:23:11;11.50;99.90
19888;DHT22;10106;51.332;12.336;2023-06-14T03:25:37;11.50;99.90
19888;DHT22;10106;51.332;12.336;2023-06-14T03:28:04;11.60;99.90
19888;DHT22;10106;51.332;12.336;2023-06-14T03:30:30;11.60;99.90
19888;DHT22;10106;51.332;12.336;2023-06-14T03:32:56;11.60;99.90
19888;DHT22;10106;51.332;12.336;2023-06-14T03:35:22;11.60;99.90
19888;DHT22;10106;51.332;12.336;2023-06-14T03:37:47;11.60;99.90
19888;DHT22;10106;51.332;12.336;2023-06-14T03:40:14;11.60;99.90
19888;DHT22;10106;51.332;12.336;2023-06-14T03:42:40;11.80;99.90
19888;DHT22;10106;51.332;12.336;2023-06-14T03:45:06;12.20;99.90
19888;DHT22;10106;51.332;12.336;2023-06-14T03:47:32;12.80;99.90
19888;DHT22;10106;51.332;12.336;2023-06-14T03:49:58;13.30;99.90
19888;DHT22;10106;51.332;12.336;2023-06-14T03:52:23;13.80;99.90
19888;DHT22;10106;51.332;12.336;2023-06-14T03:54:50;14.20;99.90
19888;DHT22;10106;51.332;12.336;2023-06-14T03:57:16;14.60;99.90
19888;DHT22;10106;51.332;12.336;2023-06-14T03:59:42;14.80;99.90
19888;DHT22;10106;51.332;12.336;2023-06-14T04:02:08;15.10;99.90
19888;DHT22;10106;51.332;12.336;2023-06-14T04:04:35;15.20;99.90
19888;DHT22;10106;51.332;12.336;2023-06-14T04:07:01;15.60;99.90
19888;DHT22;10106;51.332;12.336;2023-06-14T04:09:31;15.80;99.90
19888;DHT22;10106;51.332;12.336;2023-06-14T04:11:59;15.90;99.90
19888;DHT22;10106;51.332;12.336;2023-06-14T04:14:25;16.10;99.90
19888;DHT22;10106;51.332;12.336;2023-06-14T04:16:51;16.50;99.90
19888;DHT22;10106;51.332;12.336;2023-06-14T04:19:16;16.80;99.90
19888;DHT22;10106;51.332;12.336;2023-06-14T04:21:42;16.80;99.90
19888;DHT22;10106;51.332;12.336;2023-06-14T04:24:08;16.70;99.90
19888;DHT22;10106;51.332;12.336;2023-06-14T04:26:38;17.00;99.90
19888;DHT22;10106;51.332;12.336;2023-06-14T04:29:04;17.10;99.90
19888;DHT22;10106;51.332;12.336;2023-06-14T04:31:31;17.20;99.90
19888;DHT22;10106;51.332;12.336;2023-06-14T04:33:59;17.50;99.90
19888;DHT22;10106;51.332;12.336;2023-06-14T04:36:24;17.90;99.90
19888;DHT22;10106;51.332;12.336;2023-06-14T04:38:52;18.00;99.90
19888;DHT22;10106;51.332;12.336;2023-06-14T04:41:20;18.40;99.90
19888;DHT22;10106;51.332;12.336;2023-06-14T04:43:48;18.60;99.90
19888;DHT22;10106;51.332;12.336;2023-06-14T04:46:14;18.60;99.90
19888;DHT22;10106;51.332;12.336;2023-06-14T04:48:40;18.90;99.90
19888;DHT22;10106;51.332;12.336;2023-06-14T04:51:08;19.60;99.90
19888;DHT22;10106;51.332;12.336;2023-06-14T04:53:34;19.70;99.90
19888;DHT22;10106;51.332;12.336;2023-06-14T04:55:59;20.00;99.90
19888;DHT22;10106;51.332;12.336;2023-06-14T04:58:26;20.70;99.90
19888;DHT22;10106;51.332;12.336;2023-06-14T05:06:03;21.90;97.40
19888;DHT22;10106;51.332;12.336;2023-06-14T05:08:29;22.40;95.70
19888;DHT22;10106;51.332;12.336;2023-06-14T05:10:54;22.80;95.10
19888;DHT22;10106;51.332;12.336;2023-06-14T05:13:20;23.30;94.30
19888;DHT22;10106;51.332;12.336;2023-06-14T05:15:48;24.20;92.20
19888;DHT22;10106;51.332;12.336;2023-06-14T05:18:14;24.20;91.60
19888;DHT22;10106;51.332;12.336;2023-06-14T05:20:41;24.40;90.10
19888;DHT22;10106;51.332;12.336;2023-06-14T05:23:07;24.30;89.10
19888;DHT22;10106;51.332;12.336;2023-06-14T05:25:32;23.70;89.50
19888;DHT22;10106;51.332;12.336;2023-06-14T05:27:58;23.20;90.00
19888;DHT22;10106;51.332;12.336;2023-06-14T05:30:24;23.30;90.10
19888;DHT22;10106;51.332;12.336;2023-06-14T05:32:49;23.50;89.00
19888;DHT22;10106;51.332;12.336;2023-06-14T05:35:15;23.70;88.30
19888;DHT22;10106;51.332;12.336;2023-06-14T05:37:41;23.60;88.50
19888;DHT22;10106;51.332;12.336;2023-06-14T05:40:07;23.90;86.70
19888;DHT22;10106;51.332;12.336;2023-06-14T05:42:46;23.50;87.40
19888;DHT22;10106;51.332;12.336;2023-06-14T05:45:12;23.50;87.70
19888;DHT22;10106;51.332;12.336;2023-06-14T05:47:40;24.20;86.10
19888;DHT22;10106;51.332;12.336;2023-06-14T05:50:06;24.90;85.10
19888;DHT22;10106;51.332;12.336;2023-06-14T05:52:35;25.20;83.40
19888;DHT22;10106;51.332;12.336;2023-06-14T05:55:02;25.40;82.10
19888;DHT22;10106;51.332;12.336;2023-06-14T05:57:28;25.30;81.40
19888;DHT22;10106;51.332;12.336;2023-06-14T05:59:54;25.00;81.10
19888;DHT22;10106;51.332;12.336;2023-06-14T06:02:20;25.20;80.30
19888;DHT22;10106;51.332;12.336;2023-06-14T06:04:45;26.00;79.80
19888;DHT22;10106;51.332;12.336;2023-06-14T06:07:11;25.60;79.10
19888;DHT22;10106;51.332;12.336;2023-06-14T06:09:36;25.30;78.70
19888;DHT22;10106;51.332;12.336;2023-06-14T06:12:02;25.20;79.30
19888;DHT22;10106;51.332;12.336;2023-06-14T06:14:28;25.00;79.50
19888;DHT22;10106;51.332;12.336;2023-06-14T06:16:54;25.20;80.10
19888;DHT22;10106;51.332;12.336;2023-06-14T06:19:20;26.40;77.60
19888;DHT22;10106;51.332;12.336;2023-06-14T06:21:45;27.50;74.10
19888;DHT22;10106;51.332;12.336;2023-06-14T06:24:11;27.20;72.30
19888;DHT22;10106;51.332;12.336;2023-06-14T06:26:36;26.50;72.50
19888;DHT22;10106;51.332;12.336;2023-06-14T06:29:03;26.70;73.00
19888;DHT22;10106;51.332;12.336;2023-06-14T06:31:28;26.70;72.20
19888;DHT22;10106;51.332;12.336;2023-06-14T06:33:55;26.50;72.40
19888;DHT22;10106;51.332;12.336;2023-06-14T06:36:20;26.90;70.70
19888;DHT22;10106;51.332;12.336;2023-06-14T06:38:47;26.90;70.70
19888;DHT22;10106;51.332;12.336;2023-06-14T06:41:12;27.40;70.20
19888;DHT22;10106;51.332;12.336;2023-06-14T06:43:38;27.80;68.80
19888;DHT22;10106;51.332;12.336;2023-06-14T06:46:04;28.60;67.10
19888;DHT22;10106;51.332;12.336;2023-06-14T06:48:29;28.70;65.80
19888;DHT22;10106;51.332;12.336;2023-06-14T06:50:55;28.70;65.50
19888;DHT22;10106;51.332;12.336;2023-06-14T06:53:20;28.20;65.00
19888;DHT22;10106;51.332;12.336;2023-06-14T06:55:46;28.10;65.10
19888;DHT22;10106;51.332;12.336;2023-06-14T06:58:12;27.40;65.10
19888;DHT22;10106;51.332;12.336;2023-06-14T07:00:38;27.20;66.50
19888;DHT22;10106;51.332;12.336;2023-06-14T07:03:04;28.00;65.40
19888;DHT22;10106;51.332;12.336;2023-06-14T07:05:30;29.20;62.40
19888;DHT22;10106;51.332;12.336;2023-06-14T07:07:56;29.70;59.60
19888;DHT22;10106;51.332;12.336;2023-06-14T07:10:22;29.50;99.90
19888;DHT22;10106;51.332;12.336;2023-06-14T07:12:50;29.10;99.90
19888;DHT22;10106;51.332;12.336;2023-06-14T07:15:15;29.40;99.90
19888;DHT22;10106;51.332;12.336;2023-06-14T07:17:41;29.70;99.90
19888;DHT22;10106;51.332;12.336;2023-06-14T07:20:07;30.30;99.90
19888;DHT22;10106;51.332;12.336;2023-06-14T07:22:34;30.50;99.90
19888;DHT22;10106;51.332;12.336;2023-06-14T07:24:59;30.10;99.90
19888;DHT22;10106;51.332;12.336;2023-06-14T07:27:25;29.90;99.90
19888;DHT22;10106;51.332;12.336;2023-06-14T07:29:51;30.60;99.90
19888;DHT22;10106;51.332;12.336;2023-06-14T07:32:19;31.10;99.90
19888;DHT22;10106;51.332;12.336;2023-06-14T07:34:45;30.80;99.90
19888;DHT22;10106;51.332;12.336;2023-06-14T07:37:11;30.50;1.00
19888;DHT22;10106;51.332;12.336;2023-06-14T07:39:36;30.20;99.90
19888;DHT22;10106;51.332;12.336;2023-06-14T07:42:05;29.80;99.90
19888;DHT22;10106;51.332;12.336;2023-06-14T07:44:31;29.60;99.90
19888;DHT22;10106;51.332;12.336;2023-06-14T07:46:57;29.60;99.90
19888;DHT22;10106;51.332;12.336;2023-06-14T07:49:25;29.20;99.90
19888;DHT22;10106;51.332;12.336;2023-06-14T07:51:51;29.30;99.90
19888;DHT22;10106;51.332;12.336;2023-06-14T07:54:16;29.70;99.90
19888;DHT22;10106;51.332;12.336;2023-06-14T07:56:42;29.90;99.90
19888;DHT22;10106;51.332;12.336;2023-06-14T07:59:08;30.20;99.90
19888;DHT22;10106;51.332;12.336;2023-06-14T08:01:34;30.90;99.90
19888;DHT22;10106;51.332;12.336;2023-06-14T08:03:59;30.80;99.90
19888;DHT22;10106;51.332;12.336;2023-06-14T08:06:25;29.70;99.90
19888;DHT22;10106;51.332;12.336;2023-06-14T08:08:51;29.50;99.90
19888;DHT22;10106;51.332;12.336;2023-06-14T08:11:17;28.80;99.90
19888;DHT22;10106;51.332;12.336;2023-06-14T08:13:42;28.20;99.90
19888;DHT22;10106;51.332;12.336;2023-06-14T08:16:08;28.80;99.90
19888;DHT22;10106;51.332;12.336;2023-06-14T08:18:33;29.00;99.90
19888;DHT22;10106;51.332;12.336;2023-06-14T08:21:02;28.40;99.90
19888;DHT22;10106;51.332;12.336;2023-06-14T08:23:28;28.90;99.90
19888;DHT22;10106;51.332;12.336;2023-06-14T08:25:54;28.70;99.90
19888;DHT22;10106;51.332;12.336;2023-06-14T08:28:20;28.90;99.90
19888;DHT22;10106;51.332;12.336;2023-06-14T08:30:45;29.50;99.90
19888;DHT22;10106;51.332;12.336;2023-06-14T08:33:11;28.90;99.90
19888;DHT22;10106;51.332;12.336;2023-06-14T08:35:36;29.10;99.90
19888;DHT22;10106;51.332;12.336;2023-06-14T08:38:03;29.40;99.90
19888;DHT22;10106;51.332;12.336;2023-06-14T08:40:29;29.10;99.90
19888;DHT22;10106;51.332;12.336;2023-06-14T08:42:55;29.10;99.90
19888;DHT22;10106;51.332;12.336;2023-06-14T08:45:21;29.00;99.90
19888;DHT22;10106;51.332;12.336;2023-06-14T08:47:47;28.20;99.90
19888;DHT22;10106;51.332;12.336;2023-06-14T08:50:21;28.10;99.90
19888;DHT22;10106;51.332;12.336;2023-06-14T08:52:48;28.40;99.90
19888;DHT22;10106;51.332;12.336;2023-06-14T08:57:51;29.90;99.90
19888;DHT22;10106;51.332;12.336;2023-06-14T09:00:16;29.50;99.90
19888;DHT22;10106;51.332;12.336;2023-06-14T09:02:42;28.70;99.90
19888;DHT22;10106;51.332;12.336;2023-06-14T09:05:15;28.00;99.90
19888;DHT22;10106;51.332;12.336;2023-06-14T09:07:43;28.20;99.90
19888;DHT22;10106;51.332;12.336;2023-06-14T09:10:10;29.10;99.90
19888;DHT22;10106;51.332;12.336;2023-06-14T09:12:36;29.40;99.90
19888;DHT22;10106;51.332;12.336;2023-06-14T09:15:02;28.90;99.90
19888;DHT22;10106;51.332;12.336;2023-06-14T09:17:37;28.50;99.90
19888;DHT22;10106;51.332;12.336;2023-06-14T09:20:03;28.90;99.90
19888;DHT22;10106;51.332;12.336;2023-06-14T09:22:34;30.00;99.90
19888;DHT22;10106;51.332;12.336;2023-06-14T09:25:00;30.70;99.90
19888;DHT22;10106;51.332;12.336;2023-06-14T09:27:26;31.50;99.90
19888;DHT22;10106;51.332;12.336;2023-06-14T09:29:52;31.90;99.90
19888;DHT22;10106;51.332;12.336;2023-06-14T09:32:18;32.00;99.90
19888;DHT22;10106;51.332;12.336;2023-06-14T09:34:44;31.70;99.90
19888;DHT22;10106;51.332;12.336;2023-06-14T09:37:09;28.80;99.90
19888;DHT22;10106;51.332;12.336;2023-06-14T09:42:16;28.70;99.90
19888;DHT22;10106;51.332;12.336;2023-06-14T09:44:43;29.80;99.90
19888;DHT22;10106;51.332;12.336;2023-06-14T09:47:12;30.10;99.90
19888;DHT22;10106;51.332;12.336;2023-06-14T09:49:47;30.80;99.90
19888;DHT22;10106;51.332;12.336;2023-06-14T09:52:15;30.90;99.90
19888;DHT22;10106;51.332;12.336;2023-06-14T09:54:41;30.90;99.90
19888;DHT22;10106;51.332;12.336;2023-06-14T09:57:12;29.60;99.90
19888;DHT22;10106;51.332;12.336;2023-06-14T09:59:42;28.20;99.90
19888;DHT22;10106;51.332;12.336;2023-06-14T10:02:13;29.50;99.90
19888;DHT22;10106;51.332;12.336;2023-06-14T10:04:57;30.10;99.90
19888;DHT22;10106;51.332;12.336;2023-06-14T10:07:26;29.40;99.90
19888;DHT22;10106;51.332;12.336;2023-06-14T10:09:55;29.30;99.90
19888;DHT22;10106;51.332;12.336;2023-06-14T10:12:21;27.90;99.90
19888;DHT22;10106;51.332;12.336;2023-06-14T10:14:50;26.50;99.90
19888;DHT22;10106;51.332;12.336;2023-06-14T10:17:33;25.50;99.90
19888;DHT22;10106;51.332;12.336;2023-06-14T10:22:54;24.10;99.90
19888;DHT22;10106;51.332;12.336;2023-06-14T10:25:27;24.10;99.90
19888;DHT22;10106;51.332;12.336;2023-06-14T10:28:15;23.90;99.90
19888;DHT22;10106;51.332;12.336;2023-06-14T10:30:54;23.40;99.90
19888;DHT22;10106;51.332;12.336;2023-06-14T10:33:33;23.10;99.90
19888;DHT22;10106;51.332;12.336;2023-06-14T10:38:44;23.10;99.90
19888;DHT22;10106;51.332;12.336;2023-06-14T10:41:10;22.80;99.90
19888;DHT22;10106;51.332;12.336;2023-06-14T10:43:35;22.50;99.90
19888;DHT22;10106;51.332;12.336;2023-06-14T10:46:14;22.60;99.90
19888;DHT22;10106;51.332;12.336;2023-06-14T10:48:41;22.40;99.90
19888;DHT22;10106;51.332;12.336;2023-06-14T10:51:23;22.50;99.90
19888;DHT22;10106;51.332;12.336;2023-06-14T10:53:50;22.50;99.90
19888;DHT22;10106;51.332;12.336;2023-06-14T10:56:23;22.20;99.90
19888;DHT22;10106;51.332;12.336;2023-06-14T10:58:52;22.20;99.90
19888;DHT22;10106;51.332;12.336;2023-06-14T11:01:19;22.00;99.90
19888;DHT22;10106;51.332;12.336;2023-06-14T11:03:51;21.80;99.90
19888;DHT22;10106;51.332;12.336;2023-06-14T11:06:19;21.70;99.90
19888;DHT22;10106;51.332;12.336;2023-06-14T11:11:13;22.00;99.90
19888;DHT22;10106;51.332;12.336;2023-06-14T11:13:49;21.90;99.90
19888;DHT22;10106;51.332;12.336;2023-06-14T11:18:46;21.60;99.90
19888;DHT22;10106;51.332;12.336;2023-06-14T11:21:15;21.70;99.90
19888;DHT22;10106;51.332;12.336;2023-06-14T11:23:41;21.80;99.90
19888;DHT22;10106;51.332;12.336;2023-06-14T11:26:08;22.00;99.90
19888;DHT22;10106;51.332;12.336;2023-06-14T11:28:40;22.20;99.90
19888;DHT22;10106;51.332;12.336;2023-06-14T11:31:06;22.20;99.90
19888;DHT22;10106;51.332;12.336;2023-06-14T11:33:32;22.10;99.90
19888;DHT22;10106;51.332;12.336;2023-06-14T11:35:58;22.20;99.90
19888;DHT22;10106;51.332;12.336;2023-06-14T11:38:25;22.10;99.90
19888;DHT22;10106;51.332;12.336;2023-06-14T11:40:50;22.20;99.90
19888;DHT22;10106;51.332;12.336;2023-06-14T11:43:16;22.30;99.90
19888;DHT22;10106;51.332;12.336;2023-06-14T11:45:43;22.40;99.90
19888;DHT22;10106;51.332;12.336;2023-06-14T11:48:08;22.20;99.90
19888;DHT22;10106;51.332;12.336;2023-06-14T11:50:37;22.00;99.90
19888;DHT22;10106;51.332;12.336;2023-06-14T11:53:03;22.30;99.90
19888;DHT22;10106;51.332;12.336;2023-06-14T11:55:36;22.40;99.90
19888;DHT22;10106;51.332;12.336;2023-06-14T11:58:05;22.20;99.90
19888;DHT22;10106;51.332;12.336;2023-06-14T12:00:31;22.00;99.90
19888;DHT22;10106;51.332;12.336;2023-06-14T12:02:57;22.00;99.90
19888;DHT22;10106;51.332;12.336;2023-06-14T12:05:23;22.30;99.90
19888;DHT22;10106;51.332;12.336;2023-06-14T12:07:49;22.50;99.90
19888;DHT22;10106;51.332;12.336;2023-06-14T12:10:16;22.80;99.90
19888;DHT22;10106;51.332;12.336;2023-06-14T12:12:42;23.10;99.90
19888;DHT22;10106;51.332;12.336;2023-06-14T12:15:08;23.10;99.90
19888;DHT22;10106;51.332;12.336;2023-06-14T12:17:34;23.40;99.90
19888;DHT22;10106;51.332;12.336;2023-06-14T12:20:08;23.60;99.90
19888;DHT22;10106;51.332;12.336;2023-06-14T12:22:36;23.60;99.90
19888;DHT22;10106;51.332;12.336;2023-06-14T12:25:02;23.40;99.90
19888;DHT22;10106;51.332;12.336;2023-06-14T12:27:28;22.80;99.90
19888;DHT22;10106;51.332;12.336;2023-06-14T12:30:01;22.40;99.90
19888;DHT22;10106;51.332;12.336;2023-06-14T12:32:27;22.20;99.90
19888;DHT22;10106;51.332;12.336;2023-06-14T12:34:53;22.50;99.90
19888;DHT22;10106;51.332;12.336;2023-06-14T12:37:18;22.60;99.90
19888;DHT22;10106;51.332;12.336;2023-06-14T12:39:44;22.80;99.90
19888;DHT22;10106;51.332;12.336;2023-06-14T12:42:09;22.90;99.90
19888;DHT22;10106;51.332;12.336;2023-06-14T12:44:36;22.90;99.90
19888;DHT22;10106;51.332;12.336;2023-06-14T12:47:06;22.70;99.90
19888;DHT22;10106;51.332;12.336;2023-06-14T12:49:35;22.60;99.90
19888;DHT22;10106;51.332;12.336;2023-06-14T12:52:17;22.60;99.90
19888;DHT22;10106;51.332;12.336;2023-06-14T12:59:35;22.30;99.90
19888;DHT22;10106;51.332;12.336;2023-06-14T13:04:56;22.20;99.90
19888;DHT22;10106;51.332;12.336;2023-06-14T13:07:24;22.20;99.90
19888;DHT22;10106;51.332;12.336;2023-06-14T13:09:50;22.20;99.90
19888;DHT22;10106;51.332;12.336;2023-06-14T13:12:15;22.50;99.90
19888;DHT22;10106;51.332;12.336;2023-06-14T13:14:41;22.60;99.90
19888;DHT22;10106;51.332;12.336;2023-06-14T13:17:10;22.40;99.90
19888;DHT22;10106;51.332;12.336;2023-06-14T13:19:36;22.30;99.90
19888;DHT22;10106;51.332;12.336;2023-06-14T13:22:02;22.20;99.90
19888;DHT22;10106;51.332;12.336;2023-06-14T13:24:27;22.10;99.90
19888;DHT22;10106;51.332;12.336;2023-06-14T13:26:55;22.10;99.90
19888;DHT22;10106;51.332;12.336;2023-06-14T13:29:24;22.00;99.90
19888;DHT22;10106;51.332;12.336;2023-06-14T13:31:50;22.00;99.90
19888;DHT22;10106;51.332;12.336;2023-06-14T13:34:15;22.10;99.90
19888;DHT22;10106;51.332;12.336;2023-06-14T13:36:41;22.10;99.90
19888;DHT22;10106;51.332;12.336;2023-06-14T13:39:07;22.20;99.90
19888;DHT22;10106;51.332;12.336;2023-06-14T13:41:32;22.30;99.90
19888;DHT22;10106;51.332;12.336;2023-06-14T13:44:01;22.20;99.90
19888;DHT22;10106;51.332;12.336;2023-06-14T13:46:29;22.20;99.90
19888;DHT22;10106;51.332;12.336;2023-06-14T13:48:55;22.20;99.90
19888;DHT22;10106;51.332;12.336;2023-06-14T13:51:21;22.30;99.90
19888;DHT22;10106;51.332;12.336;2023-06-14T13:53:49;22.50;99.90
19888;DHT22;10106;51.332;12.336;2023-06-14T13:56:16;22.60;99.90
19888;DHT22;10106;51.332;12.336;2023-06-14T13:58:42;22.70;99.90
19888;DHT22;10106;51.332;12.336;2023-06-14T14:01:08;22.70;99.90
19888;DHT22;10106;51.332;12.336;2023-06-14T14:03:34;22.80;99.90
19888;DHT22;10106;51.332;12.336;2023-06-14T14:06:03;22.70;99.90
19888;DHT22;10106;51.332;12.336;2023-06-14T14:08:32;22.60;99.90
19888;DHT22;10106;51.332;12.336;2023-06-14T14:10:58;22.50;99.90
19888;DHT22;10106;51.332;12.336;2023-06-14T14:13:24;22.20;99.90
19888;DHT22;10106;51.332;12.336;2023-06-14T14:15:50;22.10;99.90
19888;DHT22;10106;51.332;12.336;2023-06-14T14:18:16;22.30;99.90
19888;DHT22;10106;51.332;12.336;2023-06-14T14:20:45;22.50;99.90
19888;DHT22;10106;51.332;12.336;2023-06-14T14:23:11;22.50;99.90
19888;DHT22;10106;51.332;12.336;2023-06-14T14:25:37;22.30;99.90
19888;DHT22;10106;51.332;12.336;2023-06-14T14:28:02;22.10;99.90
19888;DHT22;10106;51.332;12.336;2023-06-14T14:30:31;21.70;99.90
19888;DHT22;10106;51.332;12.336;2023-06-14T14:32:58;21.60;99.90
19888;DHT22;10106;51.332;12.336;2023-06-14T14:35:23;21.60;99.90
19888;DHT22;10106;51.332;12.336;2023-06-14T14:37:54;21.70;99.90
19888;DHT22;10106;51.332;12.336;2023-06-14T14:40:19;22.00;99.90
19888;DHT22;10106;51.332;12.336;2023-06-14T14:42:45;22.10;99.90
19888;DHT22;10106;51.332;12.336;2023-06-14T14:45:11;22.40;99.90
19888;DHT22;10106;51.332;12.336;2023-06-14T14:47:36;22.60;99.90
19888;DHT22;10106;51.332;12.336;2023-06-14T14:50:02;22.80;99.90
19888;DHT22;10106;51.332;12.336;2023-06-14T14:52:27;22.80;99.90
19888;DHT22;10106;51.332;12.336;2023-06-14T14:54:53;22.50;99.90
19888;DHT22;10106;51.332;12.336;2023-06-14T14:57:19;22.50;99.90
19888;DHT22;10106;51.332;12.336;2023-06-14T14:59:44;22.50;99.90
19888;DHT22;10106;51.332;12.336;2023-06-14T15:02:10;22.50;99.90
19888;DHT22;10106;51.332;12.336;2023-06-14T15:04:36;22.30;99.90
19888;DHT22;10106;51.332;12.336;2023-06-14T15:07:02;22.30;99.90
19888;DHT22;10106;51.332;12.336;2023-06-14T15:09:27;22.40;99.90
19888;DHT22;10106;51.332;12.336;2023-06-14T15:11:53;22.20;99.90
19888;DHT22;10106;51.332;12.336;2023-06-14T15:14:19;22.10;99.90
19888;DHT22;10106;51.332;12.336;2023-06-14T15:16:44;22.00;99.90
19888;DHT22;10106;51.332;12.336;2023-06-14T15:19:10;22.00;99.90
19888;DHT22;10106;51.332;12.336;2023-06-14T15:21:36;22.10;99.90
19888;DHT22;10106;51.332;12.336;2023-06-14T15:24:01;22.10;99.90
19888;DHT22;10106;51.332;12.336;2023-06-14T15:26:30;22.10;99.90
19888;DHT22;10106;51.332;12.336;2023-06-14T15:28:56;21.90;99.90
19888;DHT22;10106;51.332;12.336;2023-06-14T15:31:21;21.70;99.90
19888;DHT22;10106;51.332;12.336;2023-06-14T15:33:49;21.60;99.90
19888;DHT22;10106;51.332;12.336;2023-06-14T15:36:17;21.60;99.90
19888;DHT22;10106;51.332;12.336;2023-06-14T15:38:43;21.70;99.90
19888;DHT22;10106;51.332;12.336;2023-06-14T15:41:08;21.90;99.90
19888;DHT22;10106;51.332;12.336;2023-06-14T15:43:34;22.10;99.90
19888;DHT22;10106;51.332;12.336;2023-06-14T15:46:00;22.10;99.90
19888;DHT22;10106;51.332;12.336;2023-06-14T15:48:26;22.00;99.90
19888;DHT22;10106;51.332;12.336;2023-06-14T15:50:51;22.10;99.90